Time;durP1;ratioP1;P1;durP2;ratioP2;P2;SDS_P1;SDS_P2;PMS_P1;PMS_P2;Temp;Humidity;BMP_temperature;BMP_pressure;BME280_temperature;BME280_humidity;BME280_pressure;Samples;Min_cycle;Max_cycle;Signal;HPM_P1;HPM_P2
2021/12/07 00:00:49;;;;;;;24.58;11.23;;;3.10;99.90;;;;;;5079059;28;20491;-78
2021/12/07 00:03:24;;;;;;;30.83;11.18;;;3.10;99.90;;;;;;5069978;28;20041;-77
2021/12/07 00:05:50;;;;;;;34.97;12.85;;;3.10;99.90;;;;;;5070796;28;20094;-78
2021/12/07 00:08:17;;;;;;;27.25;10.65;;;3.10;99.90;;;;;;5069896;28;20048;-78
2021/12/07 00:10:43;;;;;;;28.33;11.73;;;3.10;99.90;;;;;;5069948;28;20131;-76
2021/12/07 00:13:10;;;;;;;29.08;11.02;;;3.10;99.90;;;;;;5070945;28;20226;-76
2021/12/07 00:15:37;;;;;;;30.80;12.05;;;3.20;99.90;;;;;;5069609;28;20083;-77
2021/12/07 00:18:04;;;;;;;29.70;11.35;;;3.30;99.90;;;;;;5071625;28;20023;-77
2021/12/07 00:20:30;;;;;;;25.33;11.13;;;3.30;99.90;;;;;;5061313;28;20041;-77
2021/12/07 00:22:59;;;;;;;26.17;12.63;;;3.30;99.90;;;;;;5069297;28;20361;-79
2021/12/07 00:25:25;;;;;;;23.42;9.32;;;3.30;99.90;;;;;;5070342;28;20507;-77
2021/12/07 00:27:52;;;;;;;22.70;10.48;;;3.30;99.90;;;;;;5071601;28;20555;-77
2021/12/07 00:30:18;;;;;;;;;;;3.40;99.90;;;;;;5074311;28;20056;-77
2021/12/07 00:33:06;;;;;;;19.52;9.23;;;3.40;99.90;;;;;;5071538;28;20391;-76
2021/12/07 00:35:35;;;;;;;20.98;10.52;;;3.40;99.90;;;;;;5070586;28;20349;-77
2021/12/07 00:38:12;;;;;;;23.33;10.50;;;3.40;99.90;;;;;;5071863;28;20052;-78
2021/12/07 00:40:40;;;;;;;20.45;8.35;;;3.40;99.90;;;;;;5060932;28;20120;-78
2021/12/07 00:43:06;;;;;;;22.52;8.88;;;3.40;99.90;;;;;;5051063;28;20031;-77
2021/12/07 00:45:34;;;;;;;25.02;9.95;;;3.40;99.90;;;;;;5066498;28;20485;-76
2021/12/07 00:48:01;;;;;;;20.92;8.88;;;3.40;99.90;;;;;;5070492;28;20035;-78
2021/12/07 00:50:28;;;;;;;20.98;8.90;;;3.40;99.90;;;;;;5061803;28;20482;-77
2021/12/07 00:52:57;;;;;;;24.42;10.95;;;3.40;99.90;;;;;;5051328;28;20064;-77
2021/12/07 00:55:27;;;;;;;21.85;9.68;;;3.50;99.90;;;;;;5050271;28;20060;-77
2021/12/07 00:57:56;;;;;;;25.80;10.05;;;3.50;99.90;;;;;;5049488;28;20033;-76
2021/12/07 01:00:25;;;;;;;20.88;9.30;;;3.50;99.90;;;;;;5058251;28;20037;-77
2021/12/07 01:02:53;;;;;;;22.42;9.38;;;3.50;99.90;;;;;;5069419;28;20036;-76
2021/12/07 01:05:26;;;;;;;20.83;9.15;;;3.50;99.90;;;;;;5070561;28;20100;-77
2021/12/07 01:26:48;;;;;;;19.58;8.82;;;3.70;99.90;;;;;;5051155;28;20098;-76
2021/12/07 01:29:17;;;;;;;22.00;12.18;;;3.70;99.90;;;;;;5048952;28;20499;-77
2021/12/07 01:32:14;;;;;;;19.83;9.27;;;3.70;99.90;;;;;;5069447;28;20435;-77
2021/12/07 01:35:10;;;;;;;21.15;9.05;;;3.70;99.90;;;;;;5068502;28;20039;-77
2021/12/07 01:49:52;;;;;;;23.40;10.30;;;3.60;99.90;;;;;;5050836;28;20109;-76
2021/12/07 02:01:54;;;;;;;23.33;9.95;;;3.70;99.90;;;;;;5050965;28;20451;-76
2021/12/07 02:04:20;;;;;;;24.50;10.18;;;3.60;99.90;;;;;;5066410;28;20025;-77
2021/12/07 02:06:46;;;;;;;20.08;9.27;;;3.60;99.90;;;;;;5070644;28;20055;-78
2021/12/07 02:09:12;;;;;;;26.53;10.73;;;3.60;99.90;;;;;;5070753;28;20035;-77
2021/12/07 02:11:50;;;;;;;18.92;9.27;;;3.70;99.90;;;;;;5051573;28;20036;-77
2021/12/07 02:14:19;;;;;;;23.00;9.85;;;3.60;99.90;;;;;;5052632;28;20053;-77
2021/12/07 02:16:53;;;;;;;28.77;11.63;;;3.60;99.90;;;;;;5068325;28;20481;-77
2021/12/07 02:19:20;;;;;;;19.50;9.57;;;3.60;99.90;;;;;;5053488;28;20031;-78
2021/12/07 02:21:46;;;;;;;22.83;10.38;;;3.70;99.90;;;;;;5072685;28;20148;-78
2021/12/07 02:24:12;;;;;;;26.40;10.80;;;3.80;99.90;;;;;;5073065;28;20025;-78
2021/12/07 02:26:41;;;;;;;24.37;10.73;;;3.80;99.90;;;;;;5072828;28;20380;-77
2021/12/07 02:29:07;;;;;;;22.20;10.15;;;3.80;99.90;;;;;;5073541;28;20024;-78
2021/12/07 02:31:33;;;;;;;;;;;3.80;99.90;;;;;;5088122;28;20111;-76
2021/12/07 02:34:00;;;;;;;25.35;11.15;;;3.80;99.90;;;;;;5073078;28;19953;-77
2021/12/07 02:36:26;;;;;;;26.15;12.88;;;3.80;99.90;;;;;;5074568;28;20419;-77
2021/12/07 02:38:52;;;;;;;25.43;13.13;;;3.80;99.90;;;;;;5073928;28;20044;-77
2021/12/07 02:41:18;;;;;;;23.63;12.03;;;3.70;99.90;;;;;;5056896;28;20033;-78
2021/12/07 02:43:44;;;;;;;19.63;9.98;;;3.70;99.90;;;;;;5051384;28;20036;-77
2021/12/07 02:46:11;;;;;;;22.50;11.93;;;3.70;99.90;;;;;;5067870;28;20438;-76
2021/12/07 02:48:38;;;;;;;24.10;11.85;;;3.70;99.90;;;;;;5073203;28;20028;-76
2021/12/07 02:51:04;;;;;;;22.40;11.02;;;3.70;99.90;;;;;;5058599;28;20167;-78
2021/12/07 02:53:33;;;;;;;22.85;10.25;;;3.70;99.90;;;;;;5051234;28;20540;-78
2021/12/07 02:56:00;;;;;;;23.35;10.75;;;3.70;99.90;;;;;;5075015;28;20483;-77
2021/12/07 02:58:26;;;;;;;20.27;10.60;;;3.70;99.90;;;;;;5071628;28;20388;-77
2021/12/07 03:01:02;;;;;;;23.10;10.65;;;3.70;99.90;;;;;;5072373;28;20039;-77
2021/12/07 03:03:31;;;;;;;19.60;10.68;;;3.70;99.90;;;;;;5073138;28;20156;-78
2021/12/07 03:27:59;;;;;;;12.98;7.20;;;3.60;99.90;;;;;;5052451;28;20404;-78
2021/12/07 03:30:26;;;;;;;17.02;7.75;;;3.50;99.90;;;;;;5065306;28;20077;-78
2021/12/07 03:32:52;;;;;;;14.38;7.07;;;3.50;99.90;;;;;;5070764;28;20037;-78
2021/12/07 03:35:18;;;;;;;15.55;7.35;;;3.60;99.90;;;;;;5062091;28;20387;-76
2021/12/07 03:37:44;;;;;;;15.15;7.57;;;3.50;99.90;;;;;;5051762;28;20477;-79
2021/12/07 03:40:12;;;;;;;17.35;8.32;;;3.50;99.90;;;;;;5058389;28;20039;-76
2021/12/07 03:42:38;;;;;;;14.60;7.80;;;3.50;99.90;;;;;;5072006;28;20511;-77
2021/12/07 03:45:06;;;;;;;15.85;8.68;;;3.50;99.90;;;;;;5072907;28;20060;-77
2021/12/07 03:47:31;;;;;;;20.25;9.00;;;3.50;99.90;;;;;;5069852;28;20033;-77
2021/12/07 03:49:57;;;;;;;17.70;9.60;;;3.50;99.90;;;;;;5070017;28;20423;-77
2021/12/07 03:52:23;;;;;;;16.83;8.77;;;3.50;99.90;;;;;;5070734;28;20042;-77
2021/12/07 03:54:49;;;;;;;16.17;8.30;;;3.50;99.90;;;;;;5071356;28;20028;-77
2021/12/07 03:57:15;;;;;;;17.63;8.87;;;3.50;99.90;;;;;;5072955;28;20261;-79
2021/12/07 03:59:40;;;;;;;16.77;8.10;;;3.50;99.90;;;;;;5070602;28;20048;-77
2021/12/07 04:02:07;;;;;;;15.43;7.23;;;3.50;99.90;;;;;;5070400;28;20028;-77
2021/12/07 04:04:37;;;;;;;;;;;3.70;99.90;;;;;;5070986;28;20040;-77
2021/12/07 04:07:07;;;;;;;16.45;8.23;;;4.30;99.90;;;;;;5071276;28;20382;-78
2021/12/07 04:09:33;;;;;;;14.43;7.65;;;3.50;99.90;;;;;;5071563;28;20395;-78
2021/12/07 04:11:59;;;;;;;13.30;7.47;;;3.50;99.90;;;;;;5072144;28;20033;-78
2021/12/07 04:14:26;;;;;;;13.75;7.00;;;3.50;99.90;;;;;;5069689;28;20108;-76
2021/12/07 04:16:52;;;;;;;11.82;6.97;;;3.50;99.90;;;;;;5050227;28;20514;-77
2021/12/07 04:19:18;;;;;;;12.82;7.32;;;3.50;99.90;;;;;;5050157;28;20533;-76
2021/12/07 04:21:44;;;;;;;14.63;7.75;;;3.50;99.90;;;;;;5059921;28;20032;-77
2021/12/07 04:24:10;;;;;;;13.07;6.30;;;3.50;99.90;;;;;;5071201;28;20111;-77
2021/12/07 04:26:37;;;;;;;11.65;6.35;;;3.40;99.90;;;;;;5086080;28;20064;-78
2021/12/07 04:29:03;;;;;;;11.80;6.75;;;3.40;99.90;;;;;;5069872;28;20024;-78
2021/12/07 04:31:29;;;;;;;12.63;6.68;;;3.50;99.90;;;;;;5066401;28;20112;-78
2021/12/07 04:33:56;;;;;;;9.93;5.97;;;3.40;99.90;;;;;;5050770;28;20421;-77
2021/12/07 04:36:22;;;;;;;10.95;6.50;;;3.40;99.90;;;;;;5051280;28;20032;-77
2021/12/07 04:38:48;;;;;;;9.53;6.07;;;3.40;99.90;;;;;;5051176;28;20124;-77
2021/12/07 04:41:14;;;;;;;10.90;6.00;;;3.40;99.90;;;;;;5065425;28;20465;-78
2021/12/07 04:43:41;;;;;;;12.63;6.80;;;3.40;99.90;;;;;;5069717;28;20488;-79
2021/12/07 04:46:16;;;;;;;11.23;6.43;;;3.30;99.90;;;;;;5081347;28;20111;-78
2021/12/07 04:59:36;;;;;;;12.60;6.35;;;3.30;99.90;;;;;;5050488;28;20035;-77
2021/12/07 05:02:02;;;;;;;;;;;3.30;99.90;;;;;;5051507;28;20544;-77
2021/12/07 05:04:31;;;;;;;15.02;8.93;;;3.20;99.90;;;;;;5050392;28;19912;-76
2021/12/07 05:07:11;;;;;;;17.58;9.18;;;3.20;99.90;;;;;;5050634;28;20441;-77
2021/12/07 05:12:28;;;;;;;17.63;10.98;;;3.10;99.90;;;;;;5050368;28;20416;-77
2021/12/07 05:15:02;;;;;;;18.80;9.45;;;3.10;99.90;;;;;;5050730;28;20044;-77
2021/12/07 05:39:29;;;;;;;19.50;12.02;;;3.00;99.90;;;;;;5052047;28;20055;-77
2021/12/07 05:41:56;;;;;;;22.87;12.47;;;3.00;99.90;;;;;;5069286;28;20468;-76
2021/12/07 05:44:22;;;;;;;20.58;11.10;;;3.00;99.90;;;;;;5052438;28;20516;-77
2021/12/07 05:46:48;;;;;;;21.30;12.20;;;3.00;99.90;;;;;;5071376;28;20036;-77
2021/12/07 05:49:13;;;;;;;22.63;12.90;;;3.00;99.90;;;;;;5072515;28;20046;-78
2021/12/07 05:51:39;;;;;;;25.37;13.20;;;3.00;99.90;;;;;;5054289;28;20033;-77
2021/12/07 05:54:05;;;;;;;21.93;13.23;;;3.00;99.90;;;;;;5054978;28;20021;-77
2021/12/07 05:56:31;;;;;;;21.73;13.33;;;2.90;99.90;;;;;;5053484;28;20060;-77
2021/12/07 05:58:57;;;;;;;21.10;13.20;;;2.90;99.90;;;;;;5053933;28;20543;-78
2021/12/07 06:01:25;;;;;;;24.70;13.30;;;2.90;99.90;;;;;;5053601;28;20045;-77
2021/12/07 06:03:54;;;;;;;24.88;13.98;;;2.90;99.90;;;;;;5052819;28;20029;-78
2021/12/07 06:06:20;;;;;;;21.23;13.45;;;2.80;99.90;;;;;;5084539;28;20043;-68
2021/12/07 06:08:46;;;;;;;22.67;12.53;;;2.80;99.90;;;;;;5072460;28;20590;-67
2021/12/07 06:11:11;;;;;;;18.77;11.30;;;2.90;99.90;;;;;;5058117;28;20094;-71
2021/12/07 06:13:37;;;;;;;19.03;10.67;;;2.90;99.90;;;;;;5059014;28;20040;-69
2021/12/07 06:16:07;;;;;;;18.90;10.67;;;3.00;99.90;;;;;;5057912;28;20044;-69
2021/12/07 06:18:36;;;;;;;13.52;8.35;;;3.00;99.90;;;;;;5068881;28;20730;-70
2021/12/07 06:21:03;;;;;;;14.48;8.18;;;3.00;99.90;;;;;;5065175;28;20025;-68
2021/12/07 06:23:28;;;;;;;;;;;3.00;99.90;;;;;;5061641;28;20024;-69
2021/12/07 06:25:56;;;;;;;15.65;8.15;;;3.00;99.90;;;;;;5064975;28;19911;-69
2021/12/07 06:28:22;;;;;;;16.55;7.90;;;3.00;99.90;;;;;;5055936;28;20025;-69
2021/12/07 06:30:48;;;;;;;14.90;7.83;;;3.00;99.90;;;;;;5062180;28;20342;-69
2021/12/07 06:33:16;;;;;;;15.07;8.80;;;3.00;99.90;;;;;;5061564;28;20085;-68
2021/12/07 06:35:42;;;;;;;15.18;8.77;;;3.00;99.90;;;;;;5058750;28;20093;-69
2021/12/07 06:38:08;;;;;;;14.43;8.43;;;3.00;99.90;;;;;;5067907;28;20029;-69
2021/12/07 06:40:34;;;;;;;15.02;8.32;;;3.00;99.90;;;;;;5057256;28;20041;-69
2021/12/07 06:43:00;;;;;;;14.07;8.60;;;2.90;99.90;;;;;;5059759;28;20036;-70
2021/12/07 06:45:28;;;;;;;11.27;6.95;;;2.90;99.90;;;;;;5069961;28;20085;-71
2021/12/07 06:47:54;;;;;;;13.23;7.28;;;3.00;99.90;;;;;;5058046;28;20044;-69
2021/12/07 06:50:21;;;;;;;14.05;7.88;;;3.00;99.90;;;;;;5058446;28;20031;-68
2021/12/07 06:52:47;;;;;;;12.13;7.43;;;2.90;99.90;;;;;;5052887;28;20132;-69
2021/12/07 06:55:13;;;;;;;14.77;7.75;;;2.90;99.90;;;;;;5060218;28;20060;-69
2021/12/07 06:57:39;;;;;;;12.07;7.43;;;2.90;99.90;;;;;;5057885;28;20550;-69
2021/12/07 07:00:08;;;;;;;13.73;7.47;;;2.90;99.90;;;;;;5059146;28;20052;-69
2021/12/07 07:02:34;;;;;;;12.30;7.15;;;2.90;99.90;;;;;;5052082;28;20071;-69
2021/12/07 07:05:00;;;;;;;13.57;7.20;;;2.80;99.90;;;;;;5059651;28;20645;-68
2021/12/07 07:07:26;;;;;;;12.05;7.75;;;2.90;99.90;;;;;;5059408;28;20025;-69
2021/12/07 07:09:52;;;;;;;12.40;6.95;;;2.90;99.90;;;;;;5055197;28;20129;-69
2021/12/07 07:12:18;;;;;;;14.20;8.03;;;2.90;99.90;;;;;;5058841;28;20064;-68
2021/12/07 07:14:45;;;;;;;11.57;6.85;;;2.80;99.90;;;;;;5056226;28;20028;-68
2021/12/07 07:17:11;;;;;;;11.05;7.13;;;2.80;99.90;;;;;;5059062;28;20036;-68
2021/12/07 07:19:37;;;;;;;15.60;7.45;;;2.80;99.90;;;;;;5054229;28;20809;-70
2021/12/07 07:22:03;;;;;;;11.67;6.43;;;2.90;99.90;;;;;;5058014;28;20036;-69
2021/12/07 07:24:30;;;;;;;12.02;6.57;;;2.80;99.90;;;;;;5057955;28;20012;-70
2021/12/07 07:26:57;;;;;;;13.48;6.25;;;2.80;99.90;;;;;;5058290;28;20053;-66
2021/12/07 07:29:23;;;;;;;12.18;6.60;;;2.80;99.90;;;;;;5052387;28;20032;-69
2021/12/07 07:31:49;;;;;;;12.13;6.47;;;2.80;99.90;;;;;;5060306;28;20029;-68
2021/12/07 07:34:14;;;;;;;11.18;6.28;;;2.80;99.90;;;;;;5058252;28;20043;-69
2021/12/07 07:36:40;;;;;;;11.23;5.97;;;2.80;99.90;;;;;;5058506;28;20037;-69
2021/12/07 07:39:06;;;;;;;13.10;6.53;;;2.70;99.90;;;;;;5056663;28;20384;-68
2021/12/07 07:41:32;;;;;;;9.97;5.13;;;2.70;99.90;;;;;;5051967;28;20033;-69
2021/12/07 07:43:58;;;;;;;9.97;5.40;;;2.70;99.90;;;;;;5060802;28;20039;-69
2021/12/07 07:46:23;;;;;;;10.00;5.25;;;2.80;99.90;;;;;;5060193;28;20526;-68
2021/12/07 07:48:49;;;;;;;9.00;5.33;;;2.70;99.90;;;;;;5063963;28;20056;-68
2021/12/07 07:51:15;;;;;;;9.77;6.00;;;2.70;99.90;;;;;;5066524;28;20088;-68
2021/12/07 07:53:42;;;;;;;10.40;6.20;;;2.70;99.90;;;;;;5065537;28;20060;-70
2021/12/07 07:56:08;;;;;;;12.43;6.18;;;2.80;99.90;;;;;;5057724;28;20142;-68
2021/12/07 07:58:33;;;;;;;8.85;5.25;;;2.80;99.90;;;;;;5059514;28;20122;-68
2021/12/07 08:00:59;;;;;;;10.97;7.07;;;2.80;99.90;;;;;;5067561;28;20033;-70
2021/12/07 08:03:28;;;;;;;19.57;11.90;;;2.90;99.90;;;;;;5065707;28;20025;-72
2021/12/07 08:05:54;;;;;;;9.70;4.72;;;2.80;99.90;;;;;;5062633;28;20024;-68
2021/12/07 08:08:19;;;;;;;20.20;12.13;;;2.70;99.90;;;;;;5067819;28;20047;-74
2021/12/07 08:10:46;;;;;;;9.40;5.27;;;2.70;99.90;;;;;;5063050;28;20098;-69
2021/12/07 08:13:16;;;;;;;22.33;13.77;;;2.70;99.90;;;;;;5050147;28;20049;-73
2021/12/07 08:15:43;;;;;;;8.15;4.75;;;2.70;99.90;;;;;;5064578;28;20505;-72
2021/12/07 08:18:11;;;;;;;10.15;5.45;;;2.60;99.90;;;;;;5062571;28;20115;-69
2021/12/07 08:20:39;;;;;;;9.13;4.80;;;2.70;99.90;;;;;;5059122;28;20083;-68
2021/12/07 08:23:05;;;;;;;7.25;4.18;;;2.60;99.90;;;;;;5065740;28;20119;-69
2021/12/07 08:25:33;;;;;;;8.82;4.57;;;2.50;99.90;;;;;;5056804;28;20764;-69
2021/12/07 08:27:59;;;;;;;7.90;4.85;;;2.60;99.90;;;;;;5057165;28;20021;-70
2021/12/07 08:30:25;;;;;;;9.70;4.68;;;2.60;99.90;;;;;;5060715;28;20032;-69
2021/12/07 08:32:50;;;;;;;8.90;4.90;;;2.50;99.90;;;;;;5068007;28;20105;-70
2021/12/07 08:35:18;;;;;;;8.07;4.90;;;2.40;99.90;;;;;;5063253;28;20050;-67
2021/12/07 08:37:46;;;;;;;9.77;4.75;;;2.40;99.90;;;;;;5058178;28;20132;-70
2021/12/07 08:40:15;;;;;;;8.60;4.28;;;2.50;99.90;;;;;;5066203;28;20459;-68
2021/12/07 08:42:41;;;;;;;8.35;4.97;;;2.40;99.90;;;;;;5062366;28;20505;-69
2021/12/07 08:45:08;;;;;;;7.13;4.03;;;2.50;99.90;;;;;;5060595;28;20407;-65
2021/12/07 08:47:35;;;;;;;9.43;3.90;;;2.50;99.90;;;;;;5048058;28;20044;-67
2021/12/07 08:50:03;;;;;;;7.53;4.30;;;2.40;99.90;;;;;;5064076;28;20029;-66
2021/12/07 08:52:29;;;;;;;7.38;3.83;;;2.40;99.90;;;;;;5063753;28;20067;-66
2021/12/07 09:00:25;;;;;;;6.78;3.85;;;2.40;99.90;;;;;;5044246;28;20030;-66
2021/12/07 09:02:51;;;;;;;7.50;3.58;;;2.40;99.90;;;;;;5053567;28;20043;-65
2021/12/07 09:05:17;;;;;;;6.82;3.95;;;2.40;99.90;;;;;;5060117;28;20029;-66
2021/12/07 09:07:47;;;;;;;6.35;3.40;;;2.40;99.90;;;;;;5064613;28;20024;-66
2021/12/07 09:10:14;;;;;;;4.75;2.75;;;2.40;99.90;;;;;;5057643;28;20487;-67
2021/12/07 09:12:39;;;;;;;6.70;2.95;;;2.40;99.90;;;;;;5061539;28;20059;-68
2021/12/07 09:15:06;;;;;;;6.33;3.27;;;2.40;99.90;;;;;;5060975;28;20063;-66
2021/12/07 09:17:32;;;;;;;6.75;4.07;;;2.40;99.90;;;;;;5058796;28;20025;-68
2021/12/07 09:19:57;;;;;;;7.20;3.70;;;2.40;99.90;;;;;;5080401;28;20086;-67
2021/12/07 09:22:28;;;;;;;6.37;3.67;;;2.40;99.90;;;;;;5058626;28;20098;-65
2021/12/07 09:24:54;;;;;;;8.40;3.67;;;2.40;99.90;;;;;;5063598;28;20043;-66
2021/12/07 09:27:20;;;;;;;9.20;4.18;;;2.40;99.90;;;;;;5062899;28;20032;-67
2021/12/07 09:29:46;;;;;;;8.07;3.35;;;2.30;99.90;;;;;;5064395;28;20075;-66
2021/12/07 09:32:12;;;;;;;6.07;3.37;;;2.30;99.90;;;;;;5060013;28;20429;-65
2021/12/07 09:34:37;;;;;;;7.20;3.77;;;2.20;99.90;;;;;;5063788;28;20534;-67
2021/12/07 09:37:03;;;;;;;8.10;4.33;;;2.20;99.90;;;;;;5053147;28;20033;-67
2021/12/07 09:39:29;;;;;;;7.68;4.50;;;2.20;99.90;;;;;;5063094;28;20040;-66
2021/12/07 09:41:55;;;;;;;8.30;4.63;;;2.20;99.90;;;;;;5064792;28;20028;-64
2021/12/07 09:44:23;;;;;;;7.90;4.22;;;2.20;99.90;;;;;;5064883;28;20059;-66
2021/12/07 09:46:49;;;;;;;6.70;4.07;;;2.20;99.90;;;;;;5062672;28;20499;-65
2021/12/07 09:49:15;;;;;;;7.33;4.43;;;2.20;99.90;;;;;;5061188;28;20091;-65
2021/12/07 09:51:41;;;;;;;;;;;2.20;99.90;;;;;;5064757;28;20307;-65
2021/12/07 09:54:09;;;;;;;7.10;4.25;;;2.20;99.90;;;;;;5068343;28;20037;-65
2021/12/07 09:56:36;;;;;;;7.10;4.30;;;2.20;99.90;;;;;;5064539;28;20484;-65
2021/12/07 09:59:02;;;;;;;9.20;4.30;;;2.10;99.90;;;;;;5061076;28;20032;-65
2021/12/07 10:01:29;;;;;;;8.05;4.70;;;2.10;99.90;;;;;;5066911;28;20119;-65
2021/12/07 10:03:55;;;;;;;7.68;4.10;;;2.10;99.90;;;;;;5066207;28;20375;-66
2021/12/07 10:06:22;;;;;;;11.40;7.45;;;2.20;99.90;;;;;;5067717;28;20588;-66
2021/12/07 10:08:48;;;;;;;8.55;4.78;;;2.20;99.90;;;;;;5059896;28;20040;-68
2021/12/07 10:11:16;;;;;;;9.32;4.90;;;2.30;99.90;;;;;;5067851;28;20393;-69
2021/12/07 10:13:44;;;;;;;8.88;5.07;;;2.30;99.90;;;;;;5066248;28;20523;-68
2021/12/07 10:16:12;;;;;;;8.23;5.03;;;2.20;99.90;;;;;;5067466;28;20024;-68
2021/12/07 10:18:42;;;;;;;7.40;4.90;;;2.20;99.90;;;;;;5069372;28;20041;-70
2021/12/07 10:21:18;;;;;;;8.20;5.57;;;2.10;99.90;;;;;;5062732;28;20031;-67
2021/12/07 10:23:53;;;;;;;22.35;14.88;;;2.10;99.90;;;;;;5064476;28;20513;-65
2021/12/07 10:26:27;;;;;;;11.98;6.82;;;2.10;99.90;;;;;;5067030;28;20116;-67
2021/12/07 10:29:13;;;;;;;8.60;4.45;;;2.10;99.90;;;;;;5065702;28;20582;-67
2021/12/07 10:31:44;;;;;;;17.15;10.13;;;2.10;99.90;;;;;;5059921;28;20114;-68
2021/12/07 10:34:17;;;;;;;10.88;6.13;;;2.00;99.90;;;;;;5066467;28;20024;-70
2021/12/07 10:36:52;;;;;;;9.93;4.47;;;2.10;99.90;;;;;;5066420;28;20040;-70
2021/12/07 10:39:22;;;;;;;7.70;4.55;;;2.10;99.90;;;;;;5062340;28;21867;-66
2021/12/07 10:41:59;;;;;;;8.07;4.20;;;1.90;99.90;;;;;;5060846;28;20032;-67
2021/12/07 10:44:30;;;;;;;7.35;3.60;;;1.90;99.90;;;;;;5058886;28;20488;-65
2021/12/07 10:47:07;;;;;;;6.72;3.90;;;1.80;99.90;;;;;;5073510;28;20061;-64
2021/12/07 10:49:42;;;;;;;;;;;1.80;99.90;;;;;;5060864;28;20033;-65
2021/12/07 10:52:16;;;;;;;7.03;3.92;;;1.80;99.90;;;;;;5078070;28;19977;-65
2021/12/07 10:55:02;;;;;;;6.75;3.90;;;1.70;99.90;;;;;;5059022;28;20082;-64
2021/12/07 10:57:38;;;;;;;6.05;3.25;;;1.70;99.90;;;;;;5066097;28;20040;-66
2021/12/07 11:00:20;;;;;;;5.88;3.22;;;1.70;99.90;;;;;;5062381;28;20119;-66
2021/12/07 11:03:06;;;;;;;7.25;3.88;;;1.70;99.90;;;;;;5058697;28;20035;-65
2021/12/07 11:05:35;;;;;;;6.38;3.72;;;1.70;99.90;;;;;;5059260;28;20078;-65
2021/12/07 11:08:03;;;;;;;5.82;3.25;;;1.70;99.90;;;;;;5063673;28;20420;-65
2021/12/07 11:10:36;;;;;;;5.53;3.58;;;1.70;99.90;;;;;;5063854;28;20058;-65
2021/12/07 11:15:52;;;;;;;7.13;3.45;;;1.70;99.90;;;;;;5062965;28;20040;-64
2021/12/07 11:18:22;;;;;;;11.75;4.47;;;1.70;99.90;;;;;;5060002;28;20020;-66
2021/12/07 11:20:48;;;;;;;7.47;3.78;;;1.80;99.90;;;;;;5064085;28;20155;-65
2021/12/07 11:23:16;;;;;;;9.38;5.25;;;1.70;99.90;;;;;;5065645;28;20051;-65
2021/12/07 11:31:40;;;;;;;6.38;3.97;;;1.70;99.90;;;;;;5069389;28;20039;-66
2021/12/07 11:34:13;;;;;;;7.10;3.58;;;1.70;99.90;;;;;;5059274;28;20460;-65
2021/12/07 11:36:49;;;;;;;6.78;3.80;;;1.80;99.90;;;;;;5064500;28;20035;-65
2021/12/07 11:39:32;;;;;;;6.32;3.38;;;1.80;99.90;;;;;;5068063;28;20520;-65
2021/12/07 11:42:17;;;;;;;6.82;4.07;;;1.80;99.90;;;;;;5067872;28;20025;-65
2021/12/07 11:45:22;;;;;;;7.68;3.85;;;1.80;99.90;;;;;;5062890;28;20396;-63
2021/12/07 11:48:00;;;;;;;6.82;3.85;;;1.90;99.90;;;;;;5065818;28;20127;-64
2021/12/07 11:50:42;;;;;;;37.00;23.10;;;1.90;99.90;;;;;;5060619;28;20067;-65
2021/12/07 11:53:19;;;;;;;8.43;4.47;;;1.90;99.90;;;;;;5065456;28;20115;-65
2021/12/07 11:55:49;;;;;;;7.68;3.97;;;1.90;99.90;;;;;;5062742;28;20100;-68
2021/12/07 11:58:17;;;;;;;7.95;3.85;;;1.90;99.90;;;;;;5064146;28;20114;-66
2021/12/07 12:00:49;;;;;;;9.05;4.25;;;1.90;99.90;;;;;;5065218;28;20087;-66
2021/12/07 12:03:18;;;;;;;7.25;3.97;;;1.80;99.90;;;;;;5065813;28;20036;-66
2021/12/07 12:05:46;;;;;;;8.88;4.75;;;1.70;99.90;;;;;;5069490;28;20039;-64
2021/12/07 12:08:14;;;;;;;10.00;4.90;;;1.70;99.90;;;;;;5066047;28;20031;-64
2021/12/07 12:11:13;;;;;;;8.80;4.53;;;1.70;99.90;;;;;;5065407;28;20332;-64
2021/12/07 12:13:50;;;;;;;;;;;1.70;99.90;;;;;;5048346;28;20047;-65
2021/12/07 12:16:42;;;;;;;8.73;4.00;;;1.70;99.90;;;;;;5060126;28;20564;-66
2021/12/07 12:19:16;;;;;;;10.07;5.28;;;1.70;99.90;;;;;;5064158;28;20416;-66
2021/12/07 12:21:57;;;;;;;8.23;4.55;;;1.70;99.90;;;;;;5061321;28;20025;-67
2021/12/07 12:24:31;;;;;;;7.20;4.05;;;1.70;99.90;;;;;;5066713;28;20043;-64
2021/12/07 12:27:12;;;;;;;8.68;4.65;;;1.60;99.90;;;;;;5064396;28;20518;-67
2021/12/07 12:29:39;;;;;;;8.25;4.43;;;1.80;99.90;;;;;;5054169;28;20025;-66
2021/12/07 12:32:06;;;;;;;10.38;5.22;;;1.80;99.90;;;;;;5060729;28;20328;-66
2021/12/07 12:34:35;;;;;;;8.90;4.65;;;1.70;99.90;;;;;;5063885;28;20032;-66
2021/12/07 12:37:06;;;;;;;9.52;4.57;;;1.80;99.90;;;;;;5060259;28;20112;-67
2021/12/07 12:39:55;;;;;;;8.55;5.13;;;1.70;99.90;;;;;;5060798;28;20365;-66
2021/12/07 12:42:31;;;;;;;8.25;4.18;;;1.70;99.90;;;;;;5064588;28;20040;-67
2021/12/07 12:45:00;;;;;;;7.60;4.45;;;1.70;99.90;;;;;;5065511;28;20524;-65
2021/12/07 12:47:28;;;;;;;8.95;4.95;;;1.70;99.90;;;;;;5061681;28;20094;-66
2021/12/07 12:49:54;;;;;;;8.35;5.05;;;1.70;99.90;;;;;;5064125;28;20029;-66
2021/12/07 12:52:45;;;;;;;9.30;4.60;;;1.70;99.90;;;;;;5071715;28;20043;-66
2021/12/07 12:55:32;;;;;;;9.45;4.80;;;1.70;99.90;;;;;;5062831;28;20617;-67
2021/12/07 12:57:59;;;;;;;10.55;5.72;;;1.70;99.90;;;;;;5065008;28;20034;-65
2021/12/07 13:01:03;;;;;;;9.30;5.43;;;1.70;99.90;;;;;;5063296;28;20037;-64
2021/12/07 13:03:44;;;;;;;8.73;5.07;;;1.60;99.90;;;;;;5064418;28;20367;-66
2021/12/07 13:06:20;;;;;;;27.92;14.05;;;1.60;99.90;;;;;;5065393;28;20024;-67
2021/12/07 13:08:53;;;;;;;11.68;6.60;;;1.60;99.90;;;;;;5062383;28;20415;-64
2021/12/07 13:11:31;;;;;;;9.80;5.65;;;1.60;99.90;;;;;;5058767;28;20035;-66
2021/12/07 13:13:57;;;;;;;222.15;122.13;;;1.60;99.90;;;;;;5060158;28;20040;-70
2021/12/07 13:16:22;;;;;;;58.97;35.63;;;1.60;99.90;;;;;;5060754;28;20054;-64
2021/12/07 13:18:58;;;;;;;11.10;6.80;;;1.60;99.90;;;;;;5061192;28;20032;-65
2021/12/07 13:21:26;;;;;;;12.20;5.57;;;1.60;99.90;;;;;;5058731;28;20050;-65
2021/12/07 13:24:00;;;;;;;9.32;5.53;;;1.50;99.90;;;;;;5059545;28;20146;-65
2021/12/07 13:26:26;;;;;;;12.07;6.18;;;1.60;99.90;;;;;;5060375;28;20029;-64
2021/12/07 13:29:09;;;;;;;10.77;5.38;;;1.50;99.90;;;;;;5064746;28;20710;-66
2021/12/07 13:31:38;;;;;;;10.20;5.13;;;1.50;99.90;;;;;;5059817;28;20142;-65
2021/12/07 13:34:05;;;;;;;11.63;5.93;;;1.40;99.90;;;;;;5061029;28;20389;-65
2021/12/07 13:36:39;;;;;;;13.75;6.65;;;1.30;99.90;;;;;;5063850;28;20038;-63
2021/12/07 13:39:18;;;;;;;15.50;7.13;;;1.30;99.90;;;;;;5059491;28;20087;-66
2021/12/07 13:42:03;;;;;;;14.82;7.10;;;1.30;99.90;;;;;;5060603;28;20048;-65
2021/12/07 13:44:31;;;;;;;15.07;7.45;;;1.30;99.90;;;;;;5062251;28;20033;-64
2021/12/07 13:47:01;;;;;;;17.77;6.70;;;1.40;99.90;;;;;;5065620;28;20025;-65
2021/12/07 13:49:27;;;;;;;13.82;7.30;;;1.40;99.90;;;;;;5045351;28;20472;-66
2021/12/07 13:51:53;;;;;;;13.52;6.93;;;1.40;99.90;;;;;;5062365;28;20040;-67
2021/12/07 13:54:21;;;;;;;14.75;7.53;;;1.30;99.90;;;;;;5061442;28;20039;-65
2021/12/07 13:56:50;;;;;;;16.90;7.85;;;1.30;99.90;;;;;;5060826;28;20036;-65
2021/12/07 13:59:21;;;;;;;15.90;7.90;;;1.30;99.90;;;;;;5067078;28;20025;-65
2021/12/07 14:01:51;;;;;;;14.73;7.05;;;1.20;99.90;;;;;;5064862;28;20525;-65
2021/12/07 14:04:18;;;;;;;15.43;7.32;;;1.20;99.90;;;;;;5062941;28;20036;-64
2021/12/07 14:06:50;;;;;;;15.00;6.60;;;1.20;99.90;;;;;;5062086;28;20035;-65
2021/12/07 14:09:17;;;;;;;15.52;6.50;;;1.20;99.90;;;;;;5062526;28;20082;-65
2021/12/07 14:11:43;;;;;;;15.05;7.07;;;1.30;99.90;;;;;;5066063;28;20431;-67
2021/12/07 14:14:16;;;;;;;15.88;7.85;;;1.30;99.90;;;;;;5068385;28;20048;-69
2021/12/07 14:16:43;;;;;;;160.55;80.38;;;1.30;99.90;;;;;;5068428;28;20447;-68
2021/12/07 14:19:09;;;;;;;15.48;8.40;;;1.40;99.90;;;;;;5068498;28;20032;-67
2021/12/07 14:21:36;;;;;;;12.50;6.65;;;1.40;99.90;;;;;;5068871;28;20123;-66
2021/12/07 14:24:08;;;;;;;15.15;6.93;;;1.30;99.90;;;;;;5066216;28;20028;-68
2021/12/07 14:41:14;;;;;;;14.18;7.30;;;1.30;99.90;;;;;;5105646;27;20477;-66
2021/12/07 14:43:41;;;;;;;9.48;5.18;;;1.40;99.90;;;;;;5110191;27;20458;-67
2021/12/07 14:46:08;;;;;;;;;;;1.30;99.90;;;;;;5102902;28;20481;-67
2021/12/07 14:48:35;;;;;;;13.00;6.35;;;1.40;99.90;;;;;;5115506;27;19927;-66
2021/12/07 14:51:16;;;;;;;11.30;6.25;;;1.30;99.90;;;;;;5097223;27;20609;-66
2021/12/07 14:53:49;;;;;;;12.20;6.55;;;1.30;99.90;;;;;;5103104;28;20024;-66
2021/12/07 14:56:17;;;;;;;12.23;5.70;;;1.20;99.90;;;;;;5096249;28;20095;-66
2021/12/07 14:58:44;;;;;;;9.52;5.45;;;1.20;99.90;;;;;;5090850;28;20044;-66
2021/12/07 15:01:14;;;;;;;14.20;6.13;;;1.20;99.90;;;;;;5103276;28;20015;-67
2021/12/07 15:03:46;;;;;;;13.98;6.28;;;1.30;99.90;;;;;;5096447;28;20378;-65
2021/12/07 15:06:14;;;;;;;11.05;5.85;;;1.30;99.90;;;;;;5102871;28;20490;-66
2021/12/07 15:08:42;;;;;;;10.68;5.85;;;1.30;99.90;;;;;;5101859;28;20035;-66